Portada
METAR-TAF:

METAR-TAF

Aeroports :

Independence Municipal Airport

Independence, Iowa, Estats Units d'Amèrica

latitud: 42-27N, longitud: 091-56W, altitud: 298 m

Observació

L'informe es va fer fa 16 minuts, a les 20:15 UTC
Vent 14 kt del Nord/Nord-Oest amb ràfegues de 20 kt
Temperatura 16°C
Humitat 59%
Pressió 1021 hPa
Visibilitat: 16.1 km
Núvols disperses a una alçada de 3200 ft
Cel ennuvolat a una alçada de 3800 ft
Cel ennuvolat a una alçada de 4500 ft

METAR: KIIB 212015Z AUTO 33014G20KT 10SM SCT032 BKN038 BKN045 16/08 A3016 RMK AO2 T01590084

Hora: 15:31 (20:31 UTC)


TAF: manca

Observacions i pronòstics meteorològics de més de 4000 aeroports (METAR i TAF).

Les estacions disponibles són els punts grocs i vermells al mapa.

Posi el ratolí al punt desitjat per veure el nom de l'estació.

Feu clic per veure les observacions i els pronòstics meteorològics.

Per canviar el mapa: feu clic els botons verds amb una creu de color negre per apropar; al botó verd amb un guió per allunyar la imatge; o en les fletxes verdes per a mapes adjacents.


METAR-TAF: